createdAt,value
2017-10-16T00:00:05.378Z,28.57
2017-10-16T00:02:34.668Z,25.57
2017-10-16T00:05:03.919Z,26.20
2017-10-16T00:07:33.404Z,21.43
2017-10-16T00:10:02.683Z,24.50
2017-10-16T00:12:31.950Z,25.63
2017-10-16T00:15:01.447Z,20.23
2017-10-16T00:17:31.842Z,19.10
2017-10-16T00:20:01.127Z,26.07
2017-10-16T00:22:30.410Z,23.27
2017-10-16T00:24:59.692Z,28.47
2017-10-16T00:27:29.787Z,25.20
2017-10-16T00:29:59.050Z,21.37
2017-10-16T00:32:28.435Z,21.23
2017-10-16T00:34:58.548Z,21.07
2017-10-16T00:37:28.613Z,17.23
2017-10-16T00:39:57.890Z,27.10
2017-10-16T00:42:27.161Z,18.70
2017-10-16T00:44:56.451Z,24.13
2017-10-16T00:47:26.477Z,26.60
2017-10-16T00:49:55.913Z,16.90
2017-10-16T00:52:25.928Z,29.17
2017-10-16T00:54:55.207Z,32.07
2017-10-16T00:57:25.247Z,21.57
2017-10-16T00:59:54.505Z,49.73
2017-10-16T01:02:24.024Z,23.70
2017-10-16T01:04:53.435Z,41.30
2017-10-16T01:07:23.494Z,38.00
2017-10-16T01:09:52.766Z,46.63
2017-10-16T01:12:22.175Z,31.17
2017-10-16T01:14:52.195Z,32.27
2017-10-16T01:17:21.545Z,31.97
2017-10-16T01:19:50.805Z,30.80
2017-10-16T01:22:20.081Z,30.40
2017-10-16T01:24:49.383Z,34.87
2017-10-16T01:27:18.670Z,21.77
2017-10-16T01:29:47.951Z,33.23
2017-10-16T01:32:17.202Z,19.77
2017-10-16T01:34:46.513Z,34.57
2017-10-16T01:37:15.870Z,28.20
2017-10-16T01:39:45.129Z,27.23
2017-10-16T01:42:14.412Z,31.80
2017-10-16T01:44:43.694Z,34.53
2017-10-16T01:47:13.715Z,27.90
2017-10-16T01:49:43.138Z,26.10
2017-10-16T01:52:12.447Z,44.63
2017-10-16T01:54:41.714Z,31.80
2017-10-16T01:57:11.731Z,35.97
2017-10-16T01:59:41.032Z,41.10
2017-10-16T02:02:10.314Z,35.67
2017-10-16T02:04:39.575Z,42.00
2017-10-16T02:07:08.843Z,46.90
2017-10-16T02:09:39.170Z,34.03
2017-10-16T02:12:09.234Z,33.97
2017-10-16T02:14:38.580Z,46.70
2017-10-16T02:17:07.884Z,49.93
2017-10-16T02:19:37.298Z,54.80
2017-10-16T02:22:06.714Z,40.07
2017-10-16T02:24:36.750Z,39.47
2017-10-16T02:27:06.345Z,34.37
2017-10-16T02:29:35.600Z,35.67
2017-10-16T02:32:05.007Z,32.20
2017-10-16T02:34:34.282Z,47.37
2017-10-16T02:37:04.182Z,38.60
2017-10-16T02:39:33.444Z,45.57
2017-10-16T02:42:02.951Z,51.33
2017-10-16T02:44:32.979Z,47.60
2017-10-16T02:47:02.270Z,46.27
2017-10-16T02:49:31.538Z,53.07
2017-10-16T02:52:00.815Z,57.47
2017-10-16T02:54:30.066Z,68.33
2017-10-16T02:56:59.350Z,47.50
2017-10-16T02:59:28.601Z,62.53
2017-10-16T03:01:57.879Z,57.70
2017-10-16T03:04:27.183Z,50.33
2017-10-16T03:06:56.600Z,57.50
2017-10-16T03:09:25.848Z,63.80
2017-10-16T03:11:55.131Z,60.77
2017-10-16T03:14:24.381Z,61.37
2017-10-16T03:16:53.631Z,53.00
2017-10-16T03:19:22.925Z,55.77
2017-10-16T03:21:52.232Z,65.23
2017-10-16T03:24:21.476Z,41.30
2017-10-16T03:26:50.782Z,40.60
2017-10-16T03:29:20.834Z,67.67
2017-10-16T03:31:50.099Z,56.67
2017-10-16T03:34:19.356Z,41.13
2017-10-16T03:36:48.632Z,42.80
2017-10-16T03:39:18.092Z,44.90
2017-10-16T03:41:47.417Z,50.87
2017-10-16T03:44:17.445Z,48.17
2017-10-16T03:46:46.835Z,43.13
2017-10-16T03:49:16.871Z,46.03
2017-10-16T03:51:46.863Z,41.47
2017-10-16T03:54:16.125Z,43.03
2017-10-16T03:56:45.395Z,50.70
2017-10-16T03:59:14.653Z,46.50
2017-10-16T04:01:43.918Z,37.33
2017-10-16T04:04:13.170Z,48.50
2017-10-16T04:06:43.226Z,48.87
2017-10-16T04:09:12.591Z,42.87
2017-10-16T04:11:42.617Z,43.67
2017-10-16T04:14:11.896Z,43.27
2017-10-16T04:16:41.912Z,45.70
2017-10-16T04:19:11.186Z,51.10
2017-10-16T04:21:40.438Z,33.93
2017-10-16T04:24:09.722Z,36.93
2017-10-16T04:26:39.742Z,31.10
2017-10-16T04:29:09.022Z,41.73
2017-10-16T04:31:38.386Z,45.03
2017-10-16T04:34:07.658Z,38.93
2017-10-16T04:36:37.786Z,31.80
2017-10-16T04:39:07.921Z,36.70
2017-10-16T04:41:37.183Z,34.00
2017-10-16T04:44:06.462Z,32.13
2017-10-16T04:46:35.817Z,31.80
2017-10-16T04:49:05.085Z,38.10
2017-10-16T04:51:34.482Z,28.17
2017-10-16T04:54:03.780Z,27.80
2017-10-16T04:56:33.031Z,36.63
2017-10-16T04:59:03.174Z,27.63
2017-10-16T05:01:32.457Z,41.13
2017-10-16T05:04:01.785Z,40.03
2017-10-16T05:06:31.033Z,31.17
2017-10-16T05:09:01.058Z,34.07
2017-10-16T05:11:30.368Z,37.13
2017-10-16T05:13:59.682Z,41.13
2017-10-16T05:16:28.954Z,33.70
2017-10-16T05:18:58.209Z,42.60
2017-10-16T05:21:27.475Z,41.77
2017-10-16T05:23:57.490Z,52.10
2017-10-16T05:26:26.770Z,44.80
2017-10-16T05:28:57.396Z,41.10
2017-10-16T05:31:26.670Z,32.63
2017-10-16T05:33:56.029Z,36.43
2017-10-16T05:36:25.314Z,48.27
2017-10-16T05:38:54.822Z,50.60
2017-10-16T05:41:25.007Z,42.90
2017-10-16T05:43:54.286Z,47.57
2017-10-16T05:46:23.579Z,49.10
2017-10-16T05:48:52.841Z,46.23
2017-10-16T05:51:22.871Z,38.47
2017-10-16T05:53:52.153Z,25.50
2017-10-16T05:56:21.392Z,22.73
2017-10-16T05:58:50.737Z,26.00
2017-10-16T06:01:20.041Z,22.53
2017-10-16T06:03:49.342Z,19.27
2017-10-16T06:06:18.782Z,34.90
2017-10-16T06:08:48.849Z,27.93
2017-10-16T06:11:18.102Z,27.23
2017-10-16T06:13:47.502Z,27.40
2017-10-16T06:16:17.546Z,21.50
2017-10-16T06:18:46.887Z,20.33
2017-10-16T06:21:16.142Z,30.80
2017-10-16T06:23:45.559Z,22.87
2017-10-16T06:26:14.849Z,18.97
2017-10-16T06:28:44.854Z,20.80
2017-10-16T06:31:14.129Z,16.10
2017-10-16T06:33:44.912Z,25.93
2017-10-16T06:36:14.191Z,24.20
2017-10-16T06:38:43.590Z,14.80
2017-10-16T06:41:13.642Z,22.20
2017-10-16T06:43:42.906Z,25.03
2017-10-16T06:46:12.183Z,27.50
2017-10-16T06:48:41.498Z,21.50
2017-10-16T06:51:10.762Z,17.57
2017-10-16T06:53:40.221Z,24.47
2017-10-16T06:56:10.295Z,19.03
2017-10-16T06:58:39.584Z,17.83
2017-10-16T07:01:08.934Z,24.77
2017-10-16T07:03:38.219Z,19.50
2017-10-16T07:06:07.503Z,22.90
2017-10-16T07:08:36.762Z,20.20
2017-10-16T07:11:06.054Z,17.03
2017-10-16T07:13:35.333Z,13.60
2017-10-16T07:16:05.374Z,18.50
2017-10-16T07:18:34.651Z,17.03
2017-10-16T07:21:03.912Z,20.23
2017-10-16T07:23:33.181Z,19.47
2017-10-16T07:26:03.218Z,20.50
2017-10-16T07:28:32.694Z,10.10
2017-10-16T07:31:02.741Z,17.00
2017-10-16T07:33:32.129Z,19.23
2017-10-16T07:36:02.174Z,19.60
2017-10-16T07:38:31.437Z,17.30
2017-10-16T07:41:00.701Z,70.57
2017-10-16T07:43:29.991Z,23.00
2017-10-16T07:45:59.258Z,65.07
2017-10-16T07:48:28.511Z,35.07
2017-10-16T07:50:57.790Z,22.07
2017-10-16T07:53:27.130Z,12.83
2017-10-16T07:55:57.167Z,20.57
2017-10-16T07:58:26.522Z,21.30
2017-10-16T08:00:55.778Z,37.63
2017-10-16T08:03:25.097Z,34.13
2017-10-16T08:05:54.346Z,19.63
2017-10-16T08:08:25.126Z,35.37
2017-10-16T08:10:54.506Z,41.73
2017-10-16T08:13:24.562Z,15.27
2017-10-16T08:15:53.833Z,14.27
2017-10-16T08:18:23.219Z,14.10
2017-10-16T08:20:53.288Z,15.40
2017-10-16T08:23:22.642Z,45.70
2017-10-16T08:25:53.372Z,55.30
2017-10-16T08:28:23.447Z,59.63
2017-10-16T08:30:52.728Z,93.87
2017-10-16T08:33:21.988Z,70.53
2017-10-16T08:35:51.284Z,30.37
2017-10-16T08:38:20.702Z,67.37
2017-10-16T08:40:50.768Z,92.03
2017-10-16T08:43:20.026Z,27.43
2017-10-16T08:45:49.322Z,23.43
2017-10-16T08:48:18.723Z,35.60
2017-10-16T08:50:48.811Z,105.90
2017-10-16T08:53:18.147Z,64.37
2017-10-16T08:55:48.166Z,27.83
2017-10-16T08:58:18.213Z,49.07
2017-10-16T09:00:47.483Z,95.07
2017-10-16T09:03:16.758Z,36.63
2017-10-16T09:05:46.032Z,25.97
2017-10-16T09:08:15.299Z,45.80
2017-10-16T09:10:44.582Z,10.80
2017-10-16T09:13:13.850Z,11.97
2017-10-16T09:15:43.127Z,15.27
2017-10-16T09:18:12.407Z,15.30
2017-10-16T09:20:41.698Z,12.13
2017-10-16T09:23:11.823Z,13.33
2017-10-16T09:25:41.872Z,15.07
2017-10-16T09:28:12.071Z,16.37
2017-10-16T09:30:41.612Z,11.50
2017-10-16T09:33:10.810Z,9.80
2017-10-16T09:35:40.144Z,13.00
2017-10-16T09:38:09.428Z,16.70
2017-10-16T09:40:38.763Z,9.13
2017-10-16T09:43:08.083Z,11.67
2017-10-16T09:45:38.126Z,32.57
2017-10-16T09:48:07.402Z,43.83
2017-10-16T09:50:36.730Z,31.10
2017-10-16T09:53:05.994Z,34.97
2017-10-16T09:55:35.395Z,26.30
2017-10-16T09:58:05.446Z,30.37
2017-10-16T10:00:34.705Z,30.50
2017-10-16T10:03:03.970Z,25.67
2017-10-16T10:05:33.244Z,20.27
2017-10-16T10:08:02.544Z,18.13
2017-10-16T10:10:31.821Z,22.90
2017-10-16T10:13:01.879Z,15.63
2017-10-16T10:15:31.147Z,15.13
2017-10-16T10:18:00.423Z,16.30
2017-10-16T10:20:29.842Z,17.27
2017-10-16T10:23:00.492Z,16.47
2017-10-16T10:25:29.775Z,13.83
2017-10-16T10:27:59.026Z,9.63
2017-10-16T10:30:28.483Z,14.73
2017-10-16T10:32:58.516Z,15.03
2017-10-16T10:35:27.794Z,14.90
2017-10-16T10:37:57.199Z,16.30
2017-10-16T10:40:27.247Z,20.20
2017-10-16T10:42:56.540Z,26.27
2017-10-16T10:45:26.754Z,18.27
2017-10-16T10:47:56.827Z,19.43
2017-10-16T10:50:26.089Z,17.50
2017-10-16T10:52:55.372Z,15.67
2017-10-16T10:55:24.794Z,14.00
2017-10-16T10:57:54.806Z,21.50
2017-10-16T11:00:24.122Z,17.43
2017-10-16T11:02:53.365Z,14.13
2017-10-16T11:05:22.641Z,13.20
2017-10-16T11:07:51.913Z,16.03
2017-10-16T11:10:21.890Z,15.30
2017-10-16T11:12:51.154Z,21.03
2017-10-16T11:15:20.454Z,18.90
2017-10-16T11:17:49.754Z,14.67
2017-10-16T11:20:19.235Z,13.17
2017-10-16T11:22:48.523Z,12.67
2017-10-16T11:25:18.652Z,12.43
2017-10-16T11:27:48.686Z,13.40
2017-10-16T11:30:18.062Z,11.67
2017-10-16T11:32:48.369Z,16.50
2017-10-16T11:35:18.419Z,9.73
2017-10-16T11:37:47.814Z,15.00
2017-10-16T11:40:17.863Z,15.50
2017-10-16T11:42:47.234Z,12.03
2017-10-16T11:45:17.274Z,15.40
2017-10-16T11:47:46.552Z,20.73
2017-10-16T11:50:16.774Z,13.27
2017-10-16T11:52:46.064Z,13.60
2017-10-16T11:55:15.394Z,13.20
2017-10-16T11:57:44.746Z,21.30
2017-10-16T12:00:14.019Z,12.33
2017-10-16T12:02:43.594Z,13.70
2017-10-16T12:05:12.980Z,14.27
2017-10-16T12:07:42.362Z,15.03
2017-10-16T12:10:11.629Z,17.97
2017-10-16T12:12:40.930Z,19.13
2017-10-16T12:15:10.393Z,15.53
2017-10-16T12:17:40.522Z,20.77
2017-10-16T12:20:10.575Z,17.83
2017-10-16T12:22:40.030Z,18.07
2017-10-16T12:25:09.322Z,16.00
2017-10-16T12:27:39.578Z,20.73
2017-10-16T12:30:08.871Z,28.43
2017-10-16T12:32:38.378Z,19.13
2017-10-16T12:35:07.678Z,17.07
2017-10-16T12:37:37.714Z,18.33
2017-10-16T12:40:07.106Z,18.17
2017-10-16T12:42:36.407Z,17.33
2017-10-16T12:45:06.464Z,22.73
2017-10-16T12:47:35.786Z,14.03
2017-10-16T12:50:05.086Z,15.93
2017-10-16T12:52:34.366Z,15.10
2017-10-16T12:55:03.629Z,16.30
2017-10-16T12:57:33.010Z,15.63
2017-10-16T13:00:02.274Z,23.50
2017-10-16T13:02:31.543Z,18.27
2017-10-16T13:05:14.934Z,30.50
2017-10-16T13:07:44.369Z,23.33
2017-10-16T13:10:14.417Z,19.50
2017-10-16T13:12:43.674Z,19.13
2017-10-16T13:15:13.101Z,20.53
2017-10-16T13:17:42.391Z,24.90
2017-10-16T13:20:12.405Z,19.30
2017-10-16T13:22:41.687Z,20.73
2017-10-16T13:25:12.318Z,22.57
2017-10-16T13:27:41.611Z,21.23
2017-10-16T13:30:10.925Z,21.93
2017-10-16T13:32:40.198Z,25.87
2017-10-16T13:35:09.477Z,20.77
2017-10-16T13:37:38.872Z,23.00
2017-10-16T13:40:08.264Z,24.00
2017-10-16T13:42:37.616Z,24.97
2017-10-16T13:45:06.853Z,23.40
2017-10-16T13:47:36.128Z,20.47
2017-10-16T13:50:05.552Z,26.63
2017-10-16T13:52:35.647Z,26.93
2017-10-16T13:55:05.151Z,20.57
2017-10-16T13:57:34.451Z,21.90
2017-10-16T14:00:03.773Z,20.67
2017-10-16T14:02:33.065Z,32.27
2017-10-16T14:05:02.400Z,24.83
2017-10-16T14:07:32.450Z,18.50
2017-10-16T14:10:01.723Z,34.13
2017-10-16T14:12:31.022Z,30.03
2017-10-16T14:15:00.314Z,25.37
2017-10-16T14:17:29.616Z,21.93
2017-10-16T14:19:58.901Z,25.23
2017-10-16T14:22:28.822Z,32.53
2017-10-16T14:24:58.279Z,21.80
2017-10-16T14:27:27.576Z,33.17
2017-10-16T14:29:57.067Z,28.37
2017-10-16T14:32:26.388Z,22.07
2017-10-16T14:34:55.663Z,22.93
2017-10-16T14:37:25.942Z,18.73
2017-10-16T14:39:55.520Z,18.33
2017-10-16T14:42:24.822Z,28.60
2017-10-16T14:44:54.279Z,28.43
2017-10-16T14:47:24.321Z,37.53
2017-10-16T14:49:53.767Z,22.20
2017-10-16T14:52:23.076Z,32.77
2017-10-16T14:54:52.383Z,22.33
2017-10-16T14:57:21.747Z,24.67
2017-10-16T14:59:51.029Z,23.10
2017-10-16T15:02:22.188Z,36.73
2017-10-16T15:04:52.300Z,30.97
2017-10-16T15:07:21.628Z,33.47
2017-10-16T15:09:50.893Z,23.43
2017-10-16T15:12:20.175Z,25.13
2017-10-16T15:14:49.576Z,26.87
2017-10-16T15:17:18.903Z,20.77
2017-10-16T15:19:48.950Z,25.07
2017-10-16T15:22:18.227Z,20.07
2017-10-16T15:24:47.580Z,24.13
2017-10-16T15:27:16.879Z,27.33
2017-10-16T15:29:46.155Z,34.40
2017-10-16T15:32:16.270Z,45.43
2017-10-16T15:34:45.569Z,107.87
2017-10-16T15:37:14.849Z,426.67
2017-10-16T15:39:44.246Z,254.23
2017-10-16T15:42:14.331Z,64.63
2017-10-16T15:44:43.724Z,25.33
2017-10-16T15:47:13.053Z,29.70
2017-10-16T15:49:42.314Z,26.83
2017-10-16T15:52:11.778Z,24.60
2017-10-16T15:54:41.943Z,24.60
2017-10-16T15:57:11.233Z,32.40
2017-10-16T15:59:40.529Z,27.70
2017-10-16T16:02:09.834Z,42.17
2017-10-16T16:04:39.115Z,26.63
2017-10-16T16:07:08.399Z,22.47
2017-10-16T16:09:39.069Z,27.27
2017-10-16T16:12:08.519Z,24.93
2017-10-16T16:14:37.823Z,40.27
2017-10-16T16:17:07.267Z,18.83
2017-10-16T16:19:36.646Z,19.60
2017-10-16T16:22:05.934Z,22.47
2017-10-16T16:24:35.244Z,28.80
2017-10-16T16:27:04.513Z,34.10
2017-10-16T16:29:33.957Z,23.33
2017-10-16T16:32:03.998Z,29.20
2017-10-16T16:34:33.290Z,22.33
2017-10-16T16:37:02.597Z,23.80
2017-10-16T16:39:31.878Z,23.43
2017-10-16T16:42:01.395Z,27.50
2017-10-16T16:44:30.772Z,22.47
2017-10-16T16:46:59.996Z,25.43
2017-10-16T16:49:30.049Z,27.23
2017-10-16T16:51:59.318Z,30.73
2017-10-16T16:54:28.711Z,26.13
2017-10-16T16:56:59.646Z,21.27
2017-10-16T16:59:29.092Z,19.27
2017-10-16T17:01:58.366Z,34.40
2017-10-16T17:04:27.628Z,19.20
2017-10-16T17:06:56.938Z,30.40
2017-10-16T17:09:26.225Z,25.60
2017-10-16T17:11:55.537Z,22.37
2017-10-16T17:14:24.839Z,34.83
2017-10-16T17:16:55.637Z,23.13
2017-10-16T17:19:24.953Z,37.30
2017-10-16T17:21:54.203Z,27.40
2017-10-16T17:24:23.515Z,37.80
2017-10-16T17:26:52.794Z,26.63
2017-10-16T17:29:22.855Z,19.50
2017-10-16T17:31:52.154Z,17.93
2017-10-16T17:34:21.432Z,22.27
2017-10-16T17:36:55.807Z,27.67
2017-10-16T17:39:25.074Z,22.93
2017-10-16T17:41:54.550Z,20.50
2017-10-16T17:44:23.794Z,31.27
2017-10-16T17:46:53.055Z,27.93
2017-10-16T17:49:22.571Z,21.27
2017-10-16T17:51:52.609Z,27.30
2017-10-16T17:54:21.951Z,17.03
2017-10-16T17:56:51.218Z,26.23
2017-10-16T17:59:20.511Z,29.70
2017-10-16T18:01:49.779Z,28.60
2017-10-16T18:04:19.067Z,25.43
2017-10-16T18:06:48.394Z,29.60
2017-10-16T18:09:17.709Z,22.50
2017-10-16T18:11:47.014Z,27.00
2017-10-16T18:14:16.288Z,19.10
2017-10-16T18:16:45.579Z,30.30
2017-10-16T18:19:14.899Z,19.07
2017-10-16T18:21:44.164Z,24.20
2017-10-16T18:24:13.449Z,23.33
2017-10-16T18:26:42.775Z,23.90
2017-10-16T18:29:12.238Z,31.67
2017-10-16T18:31:41.716Z,20.63
2017-10-16T18:34:11.839Z,24.30
2017-10-16T18:36:41.882Z,19.00
2017-10-16T18:39:11.214Z,31.93
2017-10-16T18:41:41.277Z,33.50
2017-10-16T18:44:10.591Z,17.80
2017-10-16T18:46:39.854Z,35.67
2017-10-16T18:49:09.149Z,30.17
2017-10-16T18:51:38.423Z,22.57
2017-10-16T18:54:07.712Z,20.97
2017-10-16T18:56:36.987Z,34.47
2017-10-16T18:59:07.514Z,26.53
2017-10-16T19:01:37.555Z,22.33
2017-10-16T19:04:06.866Z,15.50
2017-10-16T19:06:36.149Z,19.43
2017-10-16T19:09:05.473Z,21.20
2017-10-16T19:11:34.854Z,19.83
2017-10-16T19:14:04.123Z,17.57
2017-10-16T19:16:34.210Z,24.87
2017-10-16T19:19:03.690Z,23.23
2017-10-16T19:21:32.988Z,20.17
2017-10-16T19:24:02.383Z,29.33
2017-10-16T19:26:31.706Z,28.53
2017-10-16T19:29:01.030Z,18.47
2017-10-16T19:31:30.415Z,22.13
2017-10-16T19:33:59.778Z,24.33
2017-10-16T19:36:29.160Z,19.67
2017-10-16T19:38:58.450Z,28.83
2017-10-16T19:41:27.719Z,32.43
2017-10-16T19:43:56.990Z,27.40
2017-10-16T19:46:26.283Z,26.13
2017-10-16T19:48:56.997Z,33.90
2017-10-16T19:51:26.295Z,26.57
2017-10-16T19:53:55.580Z,21.90
2017-10-16T19:56:24.918Z,23.90
2017-10-16T19:58:54.201Z,32.63
2017-10-16T20:01:23.522Z,27.60
2017-10-16T20:03:52.960Z,22.47
2017-10-16T20:06:23.384Z,28.20
2017-10-16T20:08:52.696Z,19.53
2017-10-16T20:11:21.984Z,29.37
2017-10-16T20:13:51.259Z,25.50
2017-10-16T20:16:20.524Z,24.43
2017-10-16T20:18:49.823Z,22.23
2017-10-16T20:21:19.477Z,20.20
2017-10-16T20:23:49.414Z,20.23
2017-10-16T20:26:18.694Z,24.63
2017-10-16T20:28:48.739Z,17.70
2017-10-16T20:31:18.118Z,16.17
2017-10-16T20:33:47.414Z,19.80
2017-10-16T20:36:17.583Z,21.00
2017-10-16T20:38:46.915Z,21.27
2017-10-16T20:41:16.277Z,21.73
2017-10-16T20:43:45.553Z,29.10
2017-10-16T20:46:14.839Z,35.07
2017-10-16T20:48:44.119Z,27.10
2017-10-16T20:51:14.125Z,36.13
2017-10-16T20:53:43.422Z,17.47
2017-10-16T20:56:12.723Z,22.80
2017-10-16T20:58:41.976Z,20.03
2017-10-16T21:01:12.038Z,21.47
2017-10-16T21:03:41.302Z,20.37
2017-10-16T21:06:10.635Z,21.53
2017-10-16T21:08:41.470Z,26.67
2017-10-16T21:11:10.769Z,22.97
2017-10-16T21:13:40.069Z,16.83
2017-10-16T21:16:09.366Z,17.53
2017-10-16T21:18:39.414Z,17.53
2017-10-16T21:21:08.695Z,29.03
2017-10-16T21:23:38.015Z,22.87
2017-10-16T21:26:07.572Z,22.07
2017-10-16T21:28:36.858Z,19.07
2017-10-16T21:31:06.122Z,27.60
2017-10-16T21:33:35.512Z,38.33
2017-10-16T21:36:05.466Z,26.87
2017-10-16T21:38:34.730Z,18.17
2017-10-16T21:41:04.222Z,17.90
2017-10-16T21:43:34.265Z,24.23
2017-10-16T21:46:03.546Z,31.33
2017-10-16T21:48:32.967Z,28.67
2017-10-16T21:51:02.265Z,50.57
2017-10-16T21:53:31.574Z,29.20
2017-10-16T21:56:00.830Z,24.30
2017-10-16T21:58:30.902Z,25.80
2017-10-16T22:01:00.209Z,30.13
2017-10-16T22:03:29.566Z,19.10
2017-10-16T22:05:59.714Z,20.00
2017-10-16T22:08:28.999Z,28.47
2017-10-16T22:10:58.309Z,21.60
2017-10-16T22:13:27.593Z,16.43
2017-10-16T22:15:57.639Z,27.60
2017-10-16T22:18:26.909Z,17.83
2017-10-16T22:20:56.182Z,27.20
2017-10-16T22:23:25.479Z,26.40
2017-10-16T22:25:54.767Z,22.27
2017-10-16T22:28:24.035Z,33.47
2017-10-16T22:30:53.372Z,28.23
2017-10-16T22:33:22.900Z,20.30
2017-10-16T22:35:52.202Z,18.50
2017-10-16T22:38:21.513Z,32.87
2017-10-16T22:40:50.819Z,36.13
2017-10-16T22:43:20.096Z,17.43
2017-10-16T22:45:49.534Z,31.47
2017-10-16T22:48:18.886Z,30.03
2017-10-16T22:50:51.810Z,19.70
2017-10-16T22:53:21.960Z,33.50
2017-10-16T22:55:51.250Z,26.90
2017-10-16T22:58:21.298Z,24.57
2017-10-16T23:00:50.587Z,25.20
2017-10-16T23:03:19.868Z,28.90
2017-10-16T23:05:49.184Z,26.37
2017-10-16T23:08:18.543Z,24.93
2017-10-16T23:10:48.635Z,24.70
2017-10-16T23:13:18.670Z,38.67
2017-10-16T23:15:47.947Z,32.33
2017-10-16T23:18:17.248Z,27.67
2017-10-16T23:20:46.502Z,31.33
2017-10-16T23:23:16.548Z,22.93
2017-10-16T23:25:45.962Z,27.37
2017-10-16T23:28:15.959Z,37.33
2017-10-16T23:30:45.280Z,30.20
2017-10-16T23:33:14.546Z,17.77
2017-10-16T23:35:43.826Z,23.73
2017-10-16T23:38:13.084Z,24.97
2017-10-16T23:40:42.380Z,32.23
2017-10-16T23:43:11.687Z,17.57
2017-10-16T23:45:41.772Z,31.23
2017-10-16T23:48:11.891Z,18.47
2017-10-16T23:50:41.915Z,34.87
2017-10-16T23:53:11.209Z,17.80
2017-10-16T23:55:40.516Z,16.57
2017-10-16T23:58:09.917Z,25.40
